createdAt,value
2018-04-29T00:00:50.336Z,97369
2018-04-29T00:03:23.402Z,97367
2018-04-29T00:05:56.239Z,97364
2018-04-29T00:08:29.176Z,97363
2018-04-29T00:11:02.002Z,97363
2018-04-29T00:13:37.977Z,97370
2018-04-29T00:16:10.981Z,97378
2018-04-29T00:18:45.400Z,97374
2018-04-29T00:21:17.458Z,97371
2018-04-29T00:23:50.299Z,97367
2018-04-29T00:26:22.205Z,97364
2018-04-29T00:29:01.679Z,97367
2018-04-29T00:31:35.835Z,97374
2018-04-29T00:34:08.362Z,97367
2018-04-29T00:36:40.677Z,97367
2018-04-29T00:39:13.198Z,97370
2018-04-29T00:41:45.463Z,97374
2018-04-29T00:44:18.522Z,97368
2018-04-29T00:46:51.480Z,97369
2018-04-29T00:49:26.119Z,97369
2018-04-29T00:52:09.899Z,97370
2018-04-29T00:54:43.779Z,97369
2018-04-29T00:57:16.098Z,97371
2018-04-29T00:59:48.856Z,97379
2018-04-29T01:02:21.620Z,97381
2018-04-29T01:04:55.488Z,97387
2018-04-29T01:07:28.041Z,97387
2018-04-29T01:10:00.531Z,97382
2018-04-29T02:57:16.980Z,97474
2018-04-29T02:59:49.239Z,97471
2018-04-29T03:02:21.277Z,97464
2018-04-29T03:04:53.036Z,97454
2018-04-29T03:07:25.154Z,97446
2018-04-29T03:09:58.130Z,97449
2018-04-29T03:12:30.252Z,97449
2018-04-29T03:15:01.999Z,97444
2018-04-29T03:17:34.474Z,97439
2018-04-29T03:20:07.015Z,97438
2018-04-29T03:22:40.895Z,97435
2018-04-29T03:25:13.718Z,97437
2018-04-29T03:27:45.179Z,97433
2018-04-29T03:30:17.353Z,97426
2018-04-29T03:32:49.118Z,97422
2018-04-29T03:35:21.739Z,97411
2018-04-29T03:37:56.494Z,97406
2018-04-29T03:40:28.730Z,97400
2018-04-29T03:43:01.032Z,97396
2018-04-29T03:45:33.830Z,97392
2018-04-29T03:48:06.052Z,97390
2018-04-29T03:50:39.531Z,97396
2018-04-29T03:53:12.856Z,97391
2018-04-29T03:55:44.830Z,97390
2018-04-29T03:58:33.294Z,97386
2018-04-29T04:01:22.777Z,97389
2018-04-29T04:04:01.874Z,97383
2018-04-29T04:06:35.048Z,97382
2018-04-29T04:09:08.373Z,97378
2018-04-29T04:11:41.615Z,97379
2018-04-29T04:14:13.815Z,97375
2018-04-29T04:16:47.176Z,97375
2018-04-29T04:19:20.517Z,97375
2018-04-29T04:21:52.001Z,97371
2018-04-29T04:24:24.322Z,97369
2018-04-29T04:26:56.874Z,97367
2018-04-29T04:29:31.542Z,97367
2018-04-29T04:32:04.236Z,97366
2018-04-29T04:34:36.171Z,97364
2018-04-29T04:37:08.777Z,97361
2018-04-29T04:39:41.434Z,97371
2018-04-29T04:42:14.936Z,97365
2018-04-29T05:56:53.806Z,97342
2018-04-29T05:59:28.540Z,97339
2018-04-29T06:02:00.799Z,97340
2018-04-29T06:04:33.663Z,97344
2018-04-29T06:07:07.460Z,97342
2018-04-29T06:09:41.217Z,97341
2018-04-29T06:12:13.723Z,97336
2018-04-29T06:14:48.319Z,97330
2018-04-29T06:17:21.361Z,97327
2018-04-29T06:19:56.222Z,97325
2018-04-29T06:22:28.462Z,97321
2018-04-29T06:25:00.501Z,97324
2018-04-29T06:27:33.127Z,97322
2018-04-29T06:30:08.201Z,97320
2018-04-29T06:32:41.081Z,97315
2018-04-29T06:35:14.105Z,97310
2018-04-29T06:37:46.762Z,97313
2018-04-29T06:40:19.860Z,97305
2018-04-29T06:42:52.861Z,97295
2018-04-29T06:45:25.401Z,97299
2018-04-29T06:47:58.639Z,97296
2018-04-29T06:50:31.463Z,97294
2018-04-29T06:53:04.203Z,97293
2018-04-29T06:55:56.081Z,97294
2018-04-29T06:58:30.223Z,97288
2018-04-29T07:01:05.179Z,97276
2018-04-29T07:03:40.184Z,97266
2018-04-29T07:06:15.319Z,97264
2018-04-29T07:08:47.387Z,97266
2018-04-29T07:11:20.960Z,97261
2018-04-29T07:13:54.385Z,97260
2018-04-29T07:16:27.192Z,97255
2018-04-29T07:18:59.779Z,97251
2018-04-29T07:21:32.999Z,97254
2018-04-29T07:24:05.759Z,97250
2018-04-29T07:26:40.200Z,97253
2018-04-29T07:29:17.861Z,97258
2018-04-29T07:31:51.606Z,97261
2018-04-29T07:34:23.821Z,97264
2018-04-29T07:36:56.988Z,97260
2018-04-29T07:39:30.559Z,97265
2018-04-29T07:42:04.639Z,97265
2018-04-29T07:44:37.746Z,97262
2018-04-29T07:47:10.538Z,97258
2018-04-29T07:49:45.901Z,97260
2018-04-29T07:52:19.057Z,97257
2018-04-29T07:54:53.150Z,97250
2018-04-29T07:57:27.617Z,97234
2018-04-29T07:59:59.717Z,97228
2018-04-29T08:02:34.643Z,97224
2018-04-29T08:05:08.542Z,97223
2018-04-29T08:07:45.139Z,97217
2018-04-29T08:10:18.384Z,97220
2018-04-29T08:12:51.224Z,97212
2018-04-29T08:15:24.851Z,97209
2018-04-29T08:17:59.085Z,97203
2018-04-29T08:20:32.847Z,97203
2018-04-29T08:23:09.723Z,97201
2018-04-29T08:25:41.966Z,97197
2018-04-29T08:28:15.480Z,97192
2018-04-29T08:30:49.400Z,97190
2018-04-29T08:33:22.660Z,97183
2018-04-29T08:35:57.022Z,97182
2018-04-29T08:38:30.582Z,97183
2018-04-29T08:41:04.920Z,97182
2018-04-29T08:43:38.478Z,97176
2018-04-29T08:46:12.559Z,97174
2018-04-29T08:48:45.439Z,97171
2018-04-29T08:51:18.922Z,97171
2018-04-29T08:53:56.625Z,97169
2018-04-29T08:56:30.799Z,97164
2018-04-29T08:59:06.381Z,97162
2018-04-29T09:01:39.950Z,97160
2018-04-29T09:04:13.611Z,97162
2018-04-29T09:06:47.213Z,97158
2018-04-29T09:09:20.628Z,97155
2018-04-29T09:11:54.163Z,97156
2018-04-29T09:14:27.929Z,97152
2018-04-29T09:17:01.883Z,97148
2018-04-29T09:19:34.261Z,97142
2018-04-29T09:22:07.308Z,97140
2018-04-29T09:24:41.807Z,97137
2018-04-29T09:27:16.044Z,97134
2018-04-29T09:29:49.705Z,97129
2018-04-29T09:32:23.462Z,97130
2018-04-29T09:34:56.563Z,97126
2018-04-29T09:37:29.723Z,97130
2018-04-29T09:40:04.984Z,97128
2018-04-29T09:42:40.086Z,97126
2018-04-29T09:45:14.300Z,97124
2018-04-29T09:47:50.663Z,97127
2018-04-29T09:50:23.665Z,97126
2018-04-29T09:52:57.880Z,97126
2018-04-29T09:55:31.319Z,97120
2018-04-29T09:58:06.562Z,97124
2018-04-29T10:00:42.438Z,97122
2018-04-29T10:03:18.622Z,97115
2018-04-29T10:05:52.388Z,97114
2018-04-29T10:08:27.000Z,97109
2018-04-29T10:11:02.041Z,97106
2018-04-29T10:13:37.505Z,97103
2018-04-29T10:16:11.701Z,97098
2018-04-29T10:18:46.605Z,97097
2018-04-29T10:21:20.682Z,97093
2018-04-29T10:23:53.260Z,97086
2018-04-29T10:26:25.789Z,97091
2018-04-29T10:28:58.801Z,97085
2018-04-29T10:31:32.682Z,97084
2018-04-29T10:34:05.461Z,97075
2018-04-29T10:36:40.500Z,97073
2018-04-29T10:39:14.300Z,97068
2018-04-29T10:41:48.783Z,97071
2018-04-29T10:44:24.844Z,97071
2018-04-29T10:47:00.001Z,97067
2018-04-29T10:49:34.580Z,97066
2018-04-29T10:52:07.445Z,97063
2018-04-29T10:54:41.207Z,97048
2018-04-29T10:57:14.642Z,97050
2018-04-29T10:59:49.823Z,97042
2018-04-29T11:02:23.184Z,97043
2018-04-29T11:04:56.840Z,97032
2018-04-29T11:07:30.739Z,97035
2018-04-29T11:10:05.229Z,97028
2018-04-29T11:12:38.085Z,97027
2018-04-29T11:15:11.664Z,97023
2018-04-29T11:17:49.302Z,97013
2018-04-29T11:20:23.522Z,97020
2018-04-29T11:22:56.044Z,97016
2018-04-29T11:25:32.722Z,97011
2018-04-29T11:28:05.162Z,97013
2018-04-29T11:30:41.299Z,97012
2018-04-29T11:33:17.324Z,97008
2018-04-29T11:35:54.859Z,97006
2018-04-29T11:38:27.184Z,97008
2018-04-29T11:41:00.844Z,96998
2018-04-29T11:43:35.284Z,96992
2018-04-29T11:46:08.950Z,96993
2018-04-29T11:48:43.697Z,96992
2018-04-29T11:51:18.683Z,96985
2018-04-29T11:53:53.265Z,96987
2018-04-29T11:56:25.663Z,96984
2018-04-29T11:59:00.841Z,96979
2018-04-29T12:01:35.884Z,96977
2018-04-29T12:04:28.880Z,96966
2018-04-29T12:07:03.480Z,96962
2018-04-29T12:09:39.110Z,96956
2018-04-29T12:12:12.410Z,96947
2018-04-29T12:14:44.884Z,96956
2018-04-29T12:17:17.461Z,96958
2018-04-29T12:19:50.439Z,96949
2018-04-29T12:22:22.841Z,96946
2018-04-29T12:24:56.202Z,96938
2018-04-29T12:27:30.040Z,96942
2018-04-29T12:30:06.002Z,96938
2018-04-29T12:32:40.299Z,96933
2018-04-29T12:35:16.060Z,96932
2018-04-29T12:37:48.918Z,96920
2018-04-29T12:40:24.122Z,96924
2018-04-29T12:42:59.380Z,96920
2018-04-29T12:45:34.785Z,96912
2018-04-29T12:48:07.422Z,96908
2018-04-29T12:50:40.080Z,96905
2018-04-29T12:53:15.226Z,96908
2018-04-29T12:55:50.085Z,96896
2018-04-29T12:58:23.925Z,96895
2018-04-29T13:51:48.763Z,96811
2018-04-29T13:54:22.498Z,96804
2018-04-29T13:56:56.981Z,96799
2018-04-29T13:59:30.138Z,96786
2018-04-29T14:02:03.002Z,96788
2018-04-29T14:04:39.019Z,96788
2018-04-29T14:07:15.277Z,96780
2018-04-29T14:09:48.664Z,96777
2018-04-29T14:12:26.621Z,96769
2018-04-29T14:15:02.445Z,96761
2018-04-29T14:17:37.666Z,96746
2018-04-29T14:20:11.762Z,96742
2018-04-29T14:22:44.679Z,96738
2018-04-29T14:25:18.437Z,96735
2018-04-29T14:27:53.799Z,96728
2018-04-29T15:09:02.241Z,96680
2018-04-29T15:11:36.261Z,96677
2018-04-29T15:14:10.150Z,96683
2018-04-29T15:16:44.043Z,96674
2018-04-29T15:19:19.338Z,96679
2018-04-29T15:21:54.345Z,96672
2018-04-29T15:24:31.185Z,96673
2018-04-29T15:27:04.284Z,96664
2018-04-29T15:29:37.779Z,96666
2018-04-29T15:32:12.184Z,96657
2018-04-29T16:07:22.364Z,96606
2018-04-29T16:09:55.543Z,96608
2018-04-29T16:12:28.336Z,96608
2018-04-29T16:15:01.785Z,96602
2018-04-29T16:17:35.839Z,96601
2018-04-29T16:20:09.948Z,96601
2018-04-29T16:22:43.220Z,96595
2018-04-29T16:25:17.421Z,96591
2018-04-29T16:27:50.540Z,96590
2018-04-29T16:30:24.121Z,96589
2018-04-29T16:32:58.680Z,96588
2018-04-29T16:35:31.717Z,96587
2018-04-29T16:38:06.032Z,96581
2018-04-29T16:40:44.538Z,96583
2018-04-29T16:43:19.181Z,96578
2018-04-29T16:45:54.604Z,96570
2018-04-29T16:48:32.619Z,96571
2018-04-29T16:51:07.919Z,96566
2018-04-29T16:53:43.201Z,96563
2018-04-29T16:56:17.703Z,96558
2018-04-29T16:58:51.678Z,96559
2018-04-29T17:01:24.390Z,96552
2018-04-29T17:03:58.139Z,96550
2018-04-29T17:06:31.760Z,96543
2018-04-29T17:09:06.481Z,96536
2018-04-29T17:11:39.679Z,96527
2018-04-29T17:14:12.319Z,96534
2018-04-29T17:16:49.199Z,96536
2018-04-29T17:19:24.163Z,96524
2018-04-29T17:21:57.662Z,96529
2018-04-29T17:24:32.879Z,96533
2018-04-29T17:27:05.901Z,96530
2018-04-29T17:29:42.838Z,96526
2018-04-29T17:32:16.540Z,96528
2018-04-29T17:34:51.519Z,96522
2018-04-29T17:37:26.144Z,96524
2018-04-29T17:40:01.744Z,96524
2018-04-29T17:42:35.819Z,96524
2018-04-29T17:45:10.843Z,96528
2018-04-29T17:47:44.382Z,96530
2018-04-29T17:50:19.538Z,96523
2018-04-29T17:52:56.203Z,96528
2018-04-29T17:55:31.507Z,96520
2018-04-29T17:58:11.149Z,96518
2018-04-29T18:00:45.738Z,96514
2018-04-29T18:54:08.703Z,96473
2018-04-29T18:56:42.162Z,96473
2018-04-29T18:59:14.479Z,96468
2018-04-29T19:01:48.585Z,96470
2018-04-29T19:04:21.621Z,96471
2018-04-29T19:06:54.478Z,96471
2018-04-29T19:09:27.439Z,96470
2018-04-29T19:12:03.001Z,96461
2018-04-29T19:14:35.379Z,96464
2018-04-29T19:17:10.601Z,96460
2018-04-29T19:19:45.918Z,96461
2018-04-29T19:22:18.679Z,96455
2018-04-29T19:24:51.196Z,96454
2018-04-29T19:27:25.157Z,96456
2018-04-29T19:30:01.440Z,96453
2018-04-29T19:32:35.182Z,96454
2018-04-29T19:35:08.716Z,96448
2018-04-29T19:37:41.446Z,96449
2018-04-29T19:40:17.303Z,96455
2018-04-29T19:42:51.782Z,96450
2018-04-29T19:45:25.459Z,96454
2018-04-29T19:47:59.145Z,96453
2018-04-29T19:50:32.325Z,96448
2018-04-29T19:53:06.138Z,96446
2018-04-29T19:55:40.456Z,96442
2018-04-29T19:58:15.081Z,96438
2018-04-29T20:00:47.573Z,96437
2018-04-29T20:03:20.540Z,96434
2018-04-29T20:05:55.818Z,96433
2018-04-29T20:08:29.145Z,96429
2018-04-29T20:11:02.385Z,96424
2018-04-29T20:13:34.727Z,96416
2018-04-29T20:16:07.985Z,96420
2018-04-29T20:18:40.147Z,96407
2018-04-29T20:21:13.259Z,96404
2018-04-29T20:23:48.295Z,96400
2018-04-29T20:26:21.119Z,96391
2018-04-29T20:28:53.716Z,96388
2018-04-29T20:31:26.342Z,96385
2018-04-29T20:33:59.320Z,96387
2018-04-29T20:36:32.038Z,96382
2018-04-29T20:39:07.817Z,96379
2018-04-29T20:41:41.641Z,96375
2018-04-29T20:44:14.296Z,96370
2018-04-29T20:46:46.659Z,96373
2018-04-29T20:49:18.763Z,96367
2018-04-29T20:51:52.778Z,96367
2018-04-29T20:54:26.998Z,96363
2018-04-29T20:57:01.826Z,96364
2018-04-29T20:59:35.340Z,96357
2018-04-29T21:02:07.942Z,96359
2018-04-29T21:04:40.182Z,96361
2018-04-29T21:07:12.482Z,96356
2018-04-29T21:09:45.647Z,96351
2018-04-29T21:12:19.602Z,96348
2018-04-29T21:14:51.842Z,96344
2018-04-29T21:17:25.170Z,96344
2018-04-29T21:20:00.420Z,96341
2018-04-29T21:22:33.341Z,96346
2018-04-29T21:25:09.085Z,96347
2018-04-29T21:27:44.883Z,96343
2018-04-29T21:30:19.245Z,96338
2018-04-29T21:32:52.484Z,96334
2018-04-29T21:35:24.825Z,96332
2018-04-29T21:37:57.678Z,96330
2018-04-29T21:40:33.242Z,96323
2018-04-29T21:43:05.482Z,96320
2018-04-29T21:45:37.679Z,96322
2018-04-29T21:48:11.001Z,96321
2018-04-29T21:50:43.215Z,96314
2018-04-29T21:53:16.618Z,96320
2018-04-29T21:55:50.038Z,96310
2018-04-29T21:58:22.546Z,96307
2018-04-29T22:00:55.099Z,96309
2018-04-29T22:03:27.717Z,96305
2018-04-29T22:06:00.899Z,96309
2018-04-29T22:08:33.824Z,96301
2018-04-29T22:33:14.761Z,96283
2018-04-29T22:35:48.479Z,96273
2018-04-29T22:38:24.247Z,96280
2018-04-29T22:40:58.079Z,96274
2018-04-29T22:43:30.909Z,96279
2018-04-29T22:46:02.868Z,96279
2018-04-29T22:48:35.943Z,96282
2018-04-29T22:51:07.939Z,96287
2018-04-29T22:53:42.599Z,96282
2018-04-29T22:56:15.380Z,96279
2018-04-29T22:58:47.780Z,96272
2018-04-29T23:01:20.717Z,96275
2018-04-29T23:03:53.920Z,96275
2018-04-29T23:06:27.342Z,96274
2018-04-29T23:09:02.100Z,96269
2018-04-29T23:11:34.219Z,96269
2018-04-29T23:14:08.526Z,96261
2018-04-29T23:16:42.916Z,96257
2018-04-29T23:19:15.663Z,96248
2018-04-29T23:21:48.346Z,96251
2018-04-29T23:24:20.744Z,96259
2018-04-29T23:26:54.705Z,96260
2018-04-29T23:29:26.904Z,96258
2018-04-29T23:32:00.059Z,96254
2018-04-29T23:34:32.506Z,96248
2018-04-29T23:43:02.818Z,96256
2018-04-29T23:45:35.781Z,96258
2018-04-29T23:48:08.297Z,96254
2018-04-29T23:50:40.562Z,96248
2018-04-29T23:53:13.801Z,96244
2018-04-29T23:55:46.700Z,96241
2018-04-29T23:58:19.558Z,96232
